createdAt,value
2023-04-10T00:00:57.357Z,100426.16
2023-04-10T00:03:25.505Z,100431.84
2023-04-10T00:05:53.113Z,100420.03
2023-04-10T00:08:21.837Z,100424.00
2023-04-10T00:10:48.896Z,100420.63
2023-04-10T00:13:16.632Z,100425.19
2023-04-10T00:15:44.081Z,100425.66
2023-04-10T00:18:11.935Z,100424.16
2023-04-10T00:20:39.387Z,100420.34
2023-04-10T00:23:07.807Z,100417.13
2023-04-10T00:25:36.425Z,100418.59
2023-04-10T00:28:04.157Z,100419.44
2023-04-10T00:30:31.830Z,100417.53
2023-04-10T00:32:59.212Z,100407.97
2023-04-10T00:35:26.359Z,100418.91
2023-04-10T00:37:53.625Z,100411.22
2023-04-10T00:40:20.720Z,100408.69
2023-04-10T00:42:49.177Z,100404.38
2023-04-10T00:45:16.362Z,100399.19
2023-04-10T00:47:44.075Z,100400.47
2023-04-10T00:50:11.783Z,100401.88
2023-04-10T00:52:39.481Z,100403.16
2023-04-10T00:55:09.459Z,100398.28
2023-04-10T00:57:38.038Z,100399.31
2023-04-10T01:00:09.385Z,100401.34
2023-04-10T01:02:36.819Z,100398.16
2023-04-10T01:05:07.540Z,100401.19
2023-04-10T01:07:58.777Z,100401.38
2023-04-10T01:10:45.813Z,100390.50
2023-04-10T01:13:22.668Z,100396.69
2023-04-10T01:16:01.673Z,100402.13
2023-04-10T01:18:38.020Z,100409.19
2023-04-10T01:21:11.052Z,100408.47
2023-04-10T01:24:07.608Z,100412.50
2023-04-10T01:27:12.830Z,100407.25
2023-04-10T01:29:47.993Z,100413.94
2023-04-10T01:32:22.020Z,100413.09
2023-04-10T01:34:54.150Z,100407.44
2023-04-10T01:37:27.709Z,100407.97
2023-04-10T01:40:01.063Z,100402.47
2023-04-10T01:42:32.317Z,100402.34
2023-04-10T01:45:04.791Z,100403.84
2023-04-10T01:47:32.431Z,100401.16
2023-04-10T01:50:01.361Z,100405.38
2023-04-10T01:52:31.316Z,100401.53
2023-04-10T01:55:21.492Z,100399.03
2023-04-10T01:57:55.051Z,100391.66
2023-04-10T02:00:25.012Z,100400.88
2023-04-10T02:02:52.412Z,100397.38
2023-04-10T02:05:21.002Z,100402.94
2023-04-10T02:08:02.180Z,100385.63
2023-04-10T02:10:39.568Z,100397.22
2023-04-10T02:13:11.634Z,100402.25
2023-04-10T02:15:46.320Z,100404.31
2023-04-10T02:18:17.816Z,100406.31
2023-04-10T02:20:45.840Z,100396.25
2023-04-10T02:23:15.732Z,100403.47
2023-04-10T02:25:43.036Z,100404.31
2023-04-10T02:28:10.103Z,100406.16
2023-04-10T02:30:37.357Z,100406.31
2023-04-10T02:33:06.561Z,100405.34
2023-04-10T02:35:34.771Z,100413.91
2023-04-10T02:38:03.855Z,100409.53
2023-04-10T02:40:32.318Z,100411.72
2023-04-10T02:43:13.161Z,100406.53
2023-04-10T02:45:40.882Z,100408.06
2023-04-10T02:48:11.260Z,100410.41
2023-04-10T02:50:39.022Z,100411.38
2023-04-10T02:53:06.397Z,100412.75
2023-04-10T02:55:33.746Z,100409.38
2023-04-10T02:58:00.978Z,100413.06
2023-04-10T03:00:30.945Z,100410.41
2023-04-10T03:03:21.324Z,100410.41
2023-04-10T03:05:58.418Z,100406.72
2023-04-10T03:08:48.467Z,100408.06
2023-04-10T03:11:15.579Z,100396.13
2023-04-10T03:13:42.791Z,100397.81
2023-04-10T03:16:10.254Z,100395.13
2023-04-10T03:18:39.387Z,100389.78
2023-04-10T03:21:08.425Z,100388.44
2023-04-10T03:23:35.984Z,100389.47
2023-04-10T03:26:03.550Z,100385.94
2023-04-10T03:28:33.824Z,100387.63
2023-04-10T03:31:01.557Z,100378.88
2023-04-10T03:33:30.985Z,100379.44
2023-04-10T03:36:01.842Z,100382.28
2023-04-10T03:38:28.973Z,100379.06
2023-04-10T03:40:56.421Z,100374.72
2023-04-10T03:43:26.020Z,100374.72
2023-04-10T03:45:53.279Z,100380.59
2023-04-10T03:48:21.437Z,100383.28
2023-04-10T03:50:48.791Z,100375.53
2023-04-10T03:53:17.628Z,100382.53
2023-04-10T03:55:45.818Z,100373.09
2023-04-10T03:58:13.110Z,100378.09
2023-04-10T04:00:40.481Z,100370.69
2023-04-10T04:03:14.036Z,100372.97
2023-04-10T04:05:57.081Z,100372.31
2023-04-10T04:08:45.357Z,100370.34
2023-04-10T04:11:38.179Z,100362.66
2023-04-10T04:14:13.160Z,100362.47
2023-04-10T04:16:47.733Z,100356.88
2023-04-10T04:19:31.980Z,100356.88
2023-04-10T04:22:28.686Z,100355.22
2023-04-10T04:25:09.075Z,100350.81
2023-04-10T04:27:51.810Z,100351.53
2023-04-10T04:30:42.258Z,100346.91
2023-04-10T04:33:17.178Z,100360.34
2023-04-10T04:36:22.370Z,100359.69
2023-04-10T04:39:12.254Z,100356.53
2023-04-10T04:42:04.397Z,100350.88
2023-04-10T04:44:52.537Z,100354.56
2023-04-10T04:47:38.221Z,100357.22
2023-04-10T04:50:15.161Z,100353.56
2023-04-10T04:52:57.940Z,100362.53
2023-04-10T04:55:31.185Z,100364.00
2023-04-10T04:58:31.895Z,100367.44
2023-04-10T05:01:17.835Z,100364.13
2023-04-10T05:03:54.365Z,100363.63
2023-04-10T05:06:40.809Z,100367.56
2023-04-10T05:09:15.914Z,100365.19
2023-04-10T05:12:00.686Z,100367.78
2023-04-10T05:14:51.922Z,100366.13
2023-04-10T05:17:45.043Z,100362.56
2023-04-10T05:20:18.369Z,100371.75
2023-04-10T05:23:05.789Z,100366.19
2023-04-10T05:25:51.282Z,100370.91
2023-04-10T05:28:21.931Z,100373.69
2023-04-10T05:31:10.490Z,100372.91
2023-04-10T05:33:50.723Z,100360.44
2023-04-10T05:36:36.455Z,100365.19
2023-04-10T05:39:08.450Z,100366.06
2023-04-10T05:41:51.651Z,100369.06
2023-04-10T05:44:24.008Z,100367.03
2023-04-10T05:47:02.095Z,100368.00
2023-04-10T05:49:48.107Z,100365.88
2023-04-10T05:52:17.944Z,100366.13
2023-04-10T05:55:09.583Z,100371.09
2023-04-10T05:58:15.010Z,100378.66
2023-04-10T06:01:11.653Z,100379.94
2023-04-10T06:03:49.572Z,100368.34
2023-04-10T06:06:21.126Z,100361.22
2023-04-10T06:08:48.689Z,100376.47
2023-04-10T06:11:15.630Z,100373.03
2023-04-10T06:13:47.437Z,100370.97
2023-04-10T06:16:14.391Z,100370.31
2023-04-10T06:18:42.385Z,100367.94
2023-04-10T06:21:11.706Z,100365.09
2023-04-10T06:23:39.068Z,100369.91
2023-04-10T06:26:06.683Z,100366.19
2023-04-10T06:28:33.507Z,100359.13
2023-04-10T06:31:03.479Z,100364.97
2023-04-10T06:33:34.282Z,100361.75
2023-04-10T06:36:28.308Z,100361.91
2023-04-10T06:39:00.737Z,100358.69
2023-04-10T06:41:27.882Z,100361.28
2023-04-10T06:43:57.543Z,100365.03
2023-04-10T06:46:24.651Z,100361.13
2023-04-10T06:48:51.629Z,100359.19
2023-04-10T06:51:18.576Z,100351.88
2023-04-10T06:53:47.560Z,100346.88
2023-04-10T06:56:14.394Z,100346.16
2023-04-10T06:58:41.269Z,100345.09
2023-04-10T07:01:08.260Z,100338.41
2023-04-10T07:03:35.879Z,100334.94
2023-04-10T07:06:03.920Z,100340.16
2023-04-10T07:08:30.884Z,100330.63
2023-04-10T07:10:59.169Z,100334.25
2023-04-10T07:13:26.115Z,100330.47
2023-04-10T07:15:53.102Z,100330.09
2023-04-10T07:18:22.444Z,100331.16
2023-04-10T07:20:51.300Z,100328.03
2023-04-10T07:23:18.557Z,100326.09
2023-04-10T07:26:13.772Z,100327.56
2023-04-10T07:28:40.832Z,100323.25
2023-04-10T07:31:09.053Z,100322.72
2023-04-10T07:33:36.185Z,100321.97
2023-04-10T07:36:03.496Z,100322.66
2023-04-10T07:38:30.416Z,100319.16
2023-04-10T07:40:57.712Z,100321.72
2023-04-10T07:43:26.445Z,100320.28
2023-04-10T07:45:53.465Z,100323.22
2023-04-10T07:48:20.595Z,100321.44
2023-04-10T07:50:47.667Z,100322.75
2023-04-10T07:53:14.631Z,100313.84
2023-04-10T07:55:44.243Z,100318.34
2023-04-10T07:58:11.837Z,100315.59
2023-04-10T08:00:40.368Z,100306.59
2023-04-10T08:03:08.593Z,100313.69
2023-04-10T08:05:35.612Z,100300.22
2023-04-10T08:08:02.622Z,100299.28
2023-04-10T08:10:29.557Z,100306.19
2023-04-10T08:12:57.018Z,100302.69
2023-04-10T08:15:24.028Z,100299.75
2023-04-10T08:17:52.321Z,100293.38
2023-04-10T08:20:19.515Z,100298.25
2023-04-10T08:22:46.426Z,100287.28
2023-04-10T08:25:13.337Z,100292.88
2023-04-10T08:27:40.330Z,100290.72
2023-04-10T08:30:08.815Z,100299.91
2023-04-10T08:32:36.219Z,100291.56
2023-04-10T08:35:06.002Z,100286.97
2023-04-10T08:37:33.446Z,100284.28
2023-04-10T08:40:00.364Z,100291.41
2023-04-10T08:42:27.469Z,100280.28
2023-04-10T08:44:54.839Z,100281.97
2023-04-10T08:47:27.652Z,100281.50
2023-04-10T08:49:57.819Z,100273.69
2023-04-10T08:52:30.638Z,100267.28
2023-04-10T08:55:02.536Z,100266.19
2023-04-10T08:57:30.092Z,100270.09
2023-04-10T08:59:59.481Z,100265.97
2023-04-10T09:02:40.872Z,100277.69
2023-04-10T09:05:12.092Z,100264.28
2023-04-10T09:07:41.817Z,100266.66
2023-04-10T09:10:10.309Z,100271.75
2023-04-10T09:12:44.796Z,100273.50
2023-04-10T09:15:12.329Z,100268.69
2023-04-10T09:17:55.213Z,100271.13
2023-04-10T09:20:25.195Z,100259.91
2023-04-10T09:22:54.207Z,100250.44
2023-04-10T09:25:33.956Z,100246.88
2023-04-10T09:28:04.238Z,100250.22
2023-04-10T09:30:40.036Z,100251.94
2023-04-10T09:33:24.914Z,100241.19
2023-04-10T09:35:51.942Z,100239.41
2023-04-10T09:38:21.679Z,100226.03
2023-04-10T09:40:49.644Z,100218.16
2023-04-10T09:43:22.494Z,100218.69
2023-04-10T09:45:52.246Z,100211.66
2023-04-10T09:48:20.831Z,100214.06
2023-04-10T09:50:48.727Z,100215.81
2023-04-10T09:53:18.154Z,100214.41
2023-04-10T09:55:48.424Z,100204.44
2023-04-10T09:58:17.499Z,100201.97
2023-04-10T10:00:46.696Z,100199.16
2023-04-10T10:03:17.003Z,100200.47
2023-04-10T10:05:46.259Z,100191.09
2023-04-10T10:08:15.670Z,100192.38
2023-04-10T10:10:50.662Z,100194.22
2023-04-10T10:13:35.577Z,100182.72
2023-04-10T10:16:12.968Z,100186.78
2023-04-10T10:18:50.868Z,100167.63
2023-04-10T10:21:20.625Z,100161.63
2023-04-10T10:23:49.505Z,100157.66
2023-04-10T10:26:19.499Z,100151.75
2023-04-10T10:28:47.362Z,100156.75
2023-04-10T10:31:16.239Z,100149.03
2023-04-10T10:33:44.262Z,100150.03
2023-04-10T10:36:12.070Z,100151.09
2023-04-10T10:38:48.171Z,100133.25
2023-04-10T10:41:28.682Z,100131.56
2023-04-10T10:44:08.323Z,100121.88
2023-04-10T10:46:44.554Z,100109.88
2023-04-10T10:49:11.524Z,100113.38
2023-04-10T10:51:47.299Z,100099.44
2023-04-10T10:54:34.562Z,100110.78
2023-04-10T10:57:03.605Z,100103.25
2023-04-10T10:59:55.856Z,100103.63
2023-04-10T11:02:23.829Z,100102.31
2023-04-10T11:04:50.869Z,100092.94
2023-04-10T11:07:18.330Z,100089.66
2023-04-10T11:09:51.969Z,100098.19
2023-04-10T11:12:23.428Z,100089.38
2023-04-10T11:15:01.390Z,100088.50
2023-04-10T11:17:50.425Z,100088.25
2023-04-10T11:20:18.574Z,100083.88
2023-04-10T11:23:12.141Z,100076.03
2023-04-10T11:25:51.051Z,100073.81
2023-04-10T11:28:39.341Z,100073.19
2023-04-10T11:31:21.312Z,100078.97
2023-04-10T11:33:50.501Z,100077.31
2023-04-10T11:36:17.782Z,100071.25
2023-04-10T11:38:55.879Z,100078.22
2023-04-10T11:41:28.476Z,100060.03
2023-04-10T11:43:57.720Z,100068.00
2023-04-10T11:46:24.907Z,100063.44
2023-04-10T11:48:58.828Z,100050.75
2023-04-10T11:51:25.980Z,100051.13
2023-04-10T11:54:06.511Z,100039.13
2023-04-10T11:56:33.753Z,100041.16
2023-04-10T11:59:02.511Z,100024.38
2023-04-10T12:01:29.850Z,100022.94
2023-04-10T12:03:57.311Z,100020.34
2023-04-10T12:06:24.774Z,100013.81
2023-04-10T12:08:52.793Z,100015.75
2023-04-10T12:11:22.144Z,100001.31
2023-04-10T12:13:53.289Z,100012.88
2023-04-10T12:16:22.599Z,99994.94
2023-04-10T12:18:50.478Z,100001.78
2023-04-10T12:21:18.816Z,100002.38
2023-04-10T12:23:45.688Z,99997.78
2023-04-10T12:26:15.740Z,99989.00
2023-04-10T12:28:52.346Z,99986.63
2023-04-10T12:31:28.815Z,99976.00
2023-04-10T12:33:56.176Z,99982.31
2023-04-10T12:36:24.651Z,99975.41
2023-04-10T12:38:51.790Z,99976.75
2023-04-10T12:41:23.384Z,99977.16
2023-04-10T12:43:51.956Z,99965.19
2023-04-10T12:46:28.586Z,99961.44
2023-04-10T12:48:56.416Z,99953.25
2023-04-10T12:51:42.101Z,99943.22
2023-04-10T12:54:09.084Z,99946.41
2023-04-10T12:56:43.080Z,99947.59
2023-04-10T12:59:10.778Z,99945.31
2023-04-10T13:01:39.550Z,99932.94
2023-04-10T13:04:06.938Z,99930.09
2023-04-10T13:06:42.518Z,99926.25
2023-04-10T13:09:09.422Z,99927.09
2023-04-10T13:11:37.043Z,99932.91
2023-04-10T13:14:04.183Z,99933.47
2023-04-10T13:16:31.480Z,99911.97
2023-04-10T13:19:01.336Z,99911.28
2023-04-10T13:21:29.039Z,99900.44
2023-04-10T13:23:56.201Z,99911.00
2023-04-10T13:26:23.391Z,99909.75
2023-04-10T13:28:50.671Z,99912.09
2023-04-10T13:31:17.695Z,99917.13
2023-04-10T13:33:46.187Z,99911.22
2023-04-10T13:36:15.405Z,99905.25
2023-04-10T13:38:42.764Z,99894.31
2023-04-10T13:41:09.992Z,99905.00
2023-04-10T13:43:37.189Z,99894.50
2023-04-10T13:46:04.325Z,99891.53
2023-04-10T13:48:54.450Z,99882.66
2023-04-10T13:51:19.548Z,99869.41
2023-04-10T13:53:46.703Z,99867.88
2023-04-10T13:56:13.565Z,99852.50
2023-04-10T13:58:40.463Z,99855.69
2023-04-10T14:01:08.062Z,99857.06
2023-04-10T14:03:35.028Z,99864.03
2023-04-10T14:06:02.499Z,99843.75
2023-04-10T14:08:30.924Z,99851.19
2023-04-10T14:10:57.844Z,99838.25
2023-04-10T14:13:25.009Z,99838.81
2023-04-10T14:15:52.101Z,99834.28
2023-04-10T14:18:19.112Z,99831.25
2023-04-10T14:20:46.157Z,99833.88
2023-04-10T14:23:13.256Z,99824.81
2023-04-10T14:25:41.709Z,99813.19
2023-04-10T14:28:08.690Z,99817.78
2023-04-10T14:30:35.658Z,99808.84
2023-04-10T14:33:02.554Z,99807.59
2023-04-10T14:35:29.466Z,99810.59
2023-04-10T14:37:56.747Z,99801.84
2023-04-10T14:40:25.901Z,99812.59
2023-04-10T14:42:54.128Z,99821.34
2023-04-10T14:45:21.050Z,99807.09
2023-04-10T14:47:48.194Z,99809.38
2023-04-10T14:50:15.311Z,99802.25
2023-04-10T14:52:42.171Z,99809.44
2023-04-10T14:55:10.382Z,99803.53
2023-04-10T14:57:37.613Z,99798.72
2023-04-10T15:00:08.212Z,99791.34
2023-04-10T15:02:35.979Z,99785.75
2023-04-10T15:05:03.053Z,99787.38
2023-04-10T15:07:30.097Z,99769.06
2023-04-10T15:09:57.725Z,99756.28
2023-04-10T15:12:25.342Z,99771.59
2023-04-10T15:14:52.349Z,99770.50
2023-04-10T15:17:23.512Z,99766.13
2023-04-10T15:19:51.844Z,99749.69
2023-04-10T15:22:18.754Z,99770.34
2023-04-10T15:24:50.632Z,99756.97
2023-04-10T15:27:19.925Z,99742.13
2023-04-10T15:29:47.030Z,99742.66
2023-04-10T15:32:14.276Z,99732.25
2023-04-10T15:34:43.845Z,99727.06
2023-04-10T15:37:10.680Z,99716.72
2023-04-10T15:39:37.553Z,99708.44
2023-04-10T15:42:06.249Z,99713.59
2023-04-10T15:44:33.172Z,99708.16
2023-04-10T15:47:00.040Z,99711.41
2023-04-10T15:49:37.262Z,99698.53
2023-04-10T15:52:07.204Z,99717.16
2023-04-10T15:54:35.387Z,99713.06
2023-04-10T15:57:03.703Z,99706.75
2023-04-10T15:59:31.141Z,99697.47
2023-04-10T16:01:58.337Z,99698.53
2023-04-10T16:04:25.341Z,99699.88
2023-04-10T16:06:53.125Z,99694.88
2023-04-10T16:09:26.221Z,99691.66
2023-04-10T16:11:54.345Z,99685.25
2023-04-10T16:14:21.899Z,99687.72
2023-04-10T16:16:48.984Z,99688.00
2023-04-10T16:19:15.945Z,99687.19
2023-04-10T16:21:42.946Z,99681.19
2023-04-10T16:24:40.211Z,99682.00
2023-04-10T16:27:07.288Z,99677.56
2023-04-10T16:29:34.906Z,99664.38
2023-04-10T16:32:02.009Z,99662.41
2023-04-10T16:34:28.840Z,99655.00
2023-04-10T16:37:24.321Z,99633.63
2023-04-10T16:39:52.771Z,99635.50
2023-04-10T16:42:19.765Z,99629.16
2023-04-10T16:46:02.160Z,99634.09
2023-04-10T16:48:29.595Z,99626.94
2023-04-10T16:50:58.372Z,99616.00
2023-04-10T16:53:27.192Z,99624.38
2023-04-10T16:56:01.535Z,99618.06
2023-04-10T16:58:30.583Z,99605.72
2023-04-10T17:00:57.611Z,99616.03
2023-04-10T17:03:24.873Z,99619.53
2023-04-10T17:05:52.388Z,99610.44
2023-04-10T17:08:19.480Z,99610.94
2023-04-10T17:10:46.680Z,99622.09
2023-04-10T17:13:14.930Z,99622.63
2023-04-10T17:15:41.807Z,99614.94
2023-04-10T17:18:08.844Z,99607.59
2023-04-10T17:20:36.278Z,99615.41
2023-04-10T17:23:03.369Z,99608.81
2023-04-10T17:25:30.413Z,99601.09
2023-04-10T17:27:57.535Z,99596.13
2023-04-10T17:30:26.154Z,99608.06
2023-04-10T17:32:54.159Z,99597.69
2023-04-10T17:35:21.175Z,99589.13
2023-04-10T17:37:48.031Z,99588.31
2023-04-10T17:40:14.870Z,99582.75
2023-04-10T17:42:42.441Z,99583.00
2023-04-10T17:45:10.575Z,99583.72
2023-04-10T17:47:38.911Z,99571.41
2023-04-10T17:50:08.010Z,99575.78
2023-04-10T17:52:35.320Z,99563.97
2023-04-10T17:55:02.503Z,99566.69
2023-04-10T17:57:29.325Z,99562.75
2023-04-10T17:59:56.411Z,99558.88
2023-04-10T18:02:23.386Z,99560.22
2023-04-10T18:04:51.793Z,99561.56
2023-04-10T18:07:19.073Z,99553.31
2023-04-10T18:09:48.618Z,99539.13
2023-04-10T18:12:15.507Z,99531.69
2023-04-10T18:14:42.729Z,99522.97
2023-04-10T18:17:09.700Z,99517.19
2023-04-10T18:19:37.025Z,99511.91
2023-04-10T18:22:05.337Z,99511.63
2023-04-10T18:24:32.317Z,99519.13
2023-04-10T18:26:59.424Z,99533.41
2023-04-10T18:29:26.506Z,99547.28
2023-04-10T18:31:53.606Z,99545.00
2023-04-10T18:34:20.659Z,99538.06
2023-04-10T18:36:48.482Z,99556.50
2023-04-10T18:39:17.117Z,99561.13
2023-04-10T18:41:44.032Z,99571.72
2023-04-10T18:44:11.555Z,99571.72
2023-04-10T18:46:44.380Z,99570.88
2023-04-10T18:49:13.592Z,99580.19
2023-04-10T18:51:40.943Z,99580.69
2023-04-10T18:54:08.231Z,99575.44
2023-04-10T18:56:36.530Z,99561.13
2023-04-10T18:59:04.360Z,99563.13
2023-04-10T19:01:31.318Z,99566.28
2023-04-10T19:03:58.803Z,99564.56
2023-04-10T19:06:25.943Z,99570.00
2023-04-10T19:08:53.301Z,99588.72
2023-04-10T19:11:20.250Z,99590.34
2023-04-10T19:13:48.793Z,99583.34
2023-04-10T19:16:16.065Z,99584.59
2023-04-10T19:18:42.957Z,99577.31
2023-04-10T19:21:10.214Z,99587.97
2023-04-10T19:23:37.697Z,99586.81
2023-04-10T19:26:05.780Z,99583.59
2023-04-10T19:28:34.693Z,99596.53
2023-04-10T19:31:03.411Z,99604.66
2023-04-10T19:37:19.846Z,99614.06
2023-04-10T19:39:46.890Z,99608.84
2023-04-10T19:42:14.059Z,99612.97
2023-04-10T19:44:41.385Z,99610.69
2023-04-10T19:47:09.809Z,99611.84
2023-04-10T19:49:36.918Z,99599.47
2023-04-10T19:52:04.330Z,99591.09
2023-04-10T19:54:31.440Z,99585.09
2023-04-10T19:56:58.387Z,99590.84
2023-04-10T19:59:25.495Z,99589.88
2023-04-10T20:01:55.174Z,99592.47
2023-04-10T20:04:24.868Z,99589.06
2023-04-10T20:06:52.124Z,99575.13
2023-04-10T20:09:19.038Z,99573.00
2023-04-10T20:11:47.869Z,99575.47
2023-04-10T20:14:14.751Z,99566.31
2023-04-10T20:16:41.784Z,99574.94
2023-04-10T20:19:09.042Z,99570.00
2023-04-10T20:21:37.460Z,99569.41
2023-04-10T20:24:04.984Z,99564.69
2023-04-10T20:26:32.029Z,99559.38
2023-04-10T20:28:59.543Z,99561.19
2023-04-10T20:31:26.950Z,99551.28
2023-04-10T20:33:57.009Z,99549.44
2023-04-10T20:36:23.970Z,99542.84
2023-04-10T20:38:52.553Z,99547.09
2023-04-10T20:41:19.883Z,99552.53
2023-04-10T20:43:47.035Z,99544.97
2023-04-10T20:46:13.920Z,99543.06
2023-04-10T20:48:40.839Z,99538.78
2023-04-10T20:51:09.364Z,99537.91
2023-04-10T20:53:36.317Z,99540.06
2023-04-10T20:56:06.478Z,99534.25
2023-04-10T20:58:34.689Z,99532.13
2023-04-10T21:01:02.892Z,99533.63
2023-04-10T21:03:30.292Z,99529.16
2023-04-10T21:05:57.454Z,99531.41
2023-04-10T21:08:24.488Z,99523.09
2023-04-10T21:10:51.755Z,99520.13
2023-04-10T21:13:21.164Z,99506.53
2023-04-10T21:15:48.575Z,99506.34
2023-04-10T21:18:15.438Z,99508.00
2023-04-10T21:20:42.427Z,99511.16
2023-04-10T21:23:10.672Z,99513.97
2023-04-10T21:25:39.659Z,99518.56
2023-04-10T21:28:06.684Z,99526.00
2023-04-10T21:30:35.089Z,99525.56
2023-04-10T21:33:02.128Z,99539.41
2023-04-10T21:35:29.089Z,99535.47
2023-04-10T21:37:56.001Z,99516.47
2023-04-10T21:40:23.312Z,99505.59
2023-04-10T21:42:50.311Z,99501.97
2023-04-10T21:45:17.540Z,99502.72
2023-04-10T21:47:45.800Z,99501.88
2023-04-10T21:50:12.689Z,99497.19
2023-04-10T21:52:39.596Z,99487.88
2023-04-10T21:55:08.359Z,99488.69
2023-04-10T21:57:35.203Z,99479.97
2023-04-10T22:00:02.437Z,99479.84
2023-04-10T22:02:32.618Z,99476.66
2023-04-10T22:05:01.674Z,99465.28
2023-04-10T22:07:28.578Z,99464.78
2023-04-10T22:09:55.791Z,99462.91
2023-04-10T22:12:22.637Z,99450.72
2023-04-10T22:14:49.707Z,99438.69
2023-04-10T22:17:16.887Z,99434.91
2023-04-10T22:19:43.926Z,99413.72
2023-04-10T22:22:13.722Z,99414.81
2023-04-10T22:24:40.743Z,99423.47
2023-04-10T22:27:07.723Z,99411.84
2023-04-10T22:29:35.819Z,99390.59
2023-04-10T22:32:02.739Z,99364.41
2023-04-10T22:34:29.526Z,99356.50
2023-04-10T22:36:56.603Z,99359.84
2023-04-10T22:39:24.834Z,99366.69
2023-04-10T22:41:51.783Z,99374.19
2023-04-10T22:44:18.778Z,99364.22
2023-04-10T22:46:45.931Z,99360.09
2023-04-10T22:49:13.051Z,99345.75
2023-04-10T22:51:39.954Z,99351.94
2023-04-10T22:54:06.925Z,99347.25
2023-04-10T22:56:37.121Z,99351.59
2023-04-10T22:59:04.857Z,99350.22
2023-04-10T23:01:31.887Z,99353.19
2023-04-10T23:03:58.897Z,99363.81
2023-04-10T23:06:26.082Z,99385.06
2023-04-10T23:08:53.007Z,99381.84
2023-04-10T23:11:20.435Z,99372.06
2023-04-10T23:13:48.686Z,99355.75
2023-04-10T23:16:15.729Z,99337.75
2023-04-10T23:18:42.638Z,99342.81
2023-04-10T23:21:10.061Z,99348.09
2023-04-10T23:23:36.970Z,99342.56
2023-04-10T23:26:04.290Z,99346.66
2023-04-10T23:28:31.435Z,99344.53
2023-04-10T23:30:59.677Z,99346.16
2023-04-10T23:33:26.531Z,99350.06
2023-04-10T23:35:53.522Z,99363.66
2023-04-10T23:38:20.762Z,99358.03
2023-04-10T23:40:47.784Z,99352.34
2023-04-10T23:43:14.813Z,99349.88
2023-04-10T23:45:43.370Z,99350.19
2023-04-10T23:48:11.660Z,99353.75
2023-04-10T23:50:38.624Z,99353.06
2023-04-10T23:53:05.581Z,99349.66
2023-04-10T23:55:33.002Z,99351.59
2023-04-10T23:58:00.312Z,99353.75
